createdAt,value
2023-05-06T00:01:24.470Z,16.35
2023-05-06T00:03:55.848Z,20.42
2023-05-06T00:06:27.751Z,20.00
2023-05-06T00:08:58.442Z,17.85
2023-05-06T00:11:28.976Z,16.25
2023-05-06T00:13:58.824Z,17.80
2023-05-06T00:16:31.731Z,16.50
2023-05-06T00:19:02.824Z,18.40
2023-05-06T00:21:32.299Z,18.05
2023-05-06T00:24:02.658Z,19.70
2023-05-06T00:26:32.542Z,19.33
2023-05-06T00:29:01.517Z,21.25
2023-05-06T00:31:30.444Z,19.95
2023-05-06T00:33:59.566Z,19.05
2023-05-06T00:36:32.614Z,20.90
2023-05-06T00:39:01.734Z,21.95
2023-05-06T00:41:33.285Z,20.08
2023-05-06T00:44:02.404Z,19.38
2023-05-06T00:46:31.419Z,22.73
2023-05-06T00:49:00.523Z,19.42
2023-05-06T00:51:29.798Z,20.60
2023-05-06T00:54:00.314Z,23.08
2023-05-06T00:56:29.444Z,21.73
2023-05-06T00:58:58.922Z,22.67
2023-05-06T01:01:28.456Z,21.30
2023-05-06T01:03:59.805Z,24.15
2023-05-06T01:06:37.014Z,18.55
2023-05-06T01:09:15.941Z,21.50
2023-05-06T01:11:50.623Z,20.13
2023-05-06T01:14:30.161Z,19.77
2023-05-06T01:17:06.330Z,19.23
2023-05-06T01:22:08.611Z,19.10
2023-05-06T01:24:40.088Z,19.65
2023-05-06T01:27:12.885Z,25.42
2023-05-06T01:29:44.168Z,23.50
2023-05-06T01:32:51.126Z,18.73
2023-05-06T01:35:25.648Z,27.05
2023-05-06T01:38:05.918Z,21.27
2023-05-06T01:40:38.733Z,18.73
2023-05-06T01:43:09.005Z,19.02
2023-05-06T01:45:40.679Z,23.05
2023-05-06T01:48:10.876Z,25.73
2023-05-06T01:50:40.500Z,19.65
2023-05-06T01:53:09.597Z,20.52
2023-05-06T01:55:39.825Z,21.23
2023-05-06T01:58:11.169Z,22.17
2023-05-06T02:00:42.623Z,22.48
2023-05-06T02:03:11.819Z,23.90
2023-05-06T02:05:41.140Z,19.60
2023-05-06T02:08:10.702Z,20.45
2023-05-06T02:10:41.303Z,23.17
2023-05-06T02:13:12.758Z,22.50
2023-05-06T02:15:42.092Z,22.05
2023-05-06T02:18:16.425Z,18.77
2023-05-06T02:20:45.728Z,24.85
2023-05-06T02:23:18.639Z,21.40
2023-05-06T02:25:52.206Z,20.83
2023-05-06T02:28:23.293Z,21.10
2023-05-06T02:30:56.592Z,22.02
2023-05-06T02:35:54.465Z,19.90
2023-05-06T02:38:24.009Z,18.33
2023-05-06T02:40:54.637Z,19.75
2023-05-06T02:43:23.874Z,20.63
2023-05-06T02:45:52.953Z,21.13
2023-05-06T02:48:22.198Z,18.75
2023-05-06T02:50:52.643Z,24.13
2023-05-06T02:53:22.192Z,20.08
2023-05-06T02:55:51.354Z,18.73
2023-05-06T02:58:23.858Z,25.65
2023-05-06T03:00:53.243Z,19.90
2023-05-06T03:03:24.673Z,23.55
2023-05-06T03:05:53.894Z,19.00
2023-05-06T03:08:23.068Z,23.42
2023-05-06T03:10:52.716Z,41.67
2023-05-06T03:13:24.700Z,36.65
2023-05-06T03:15:57.569Z,25.98
2023-05-06T03:18:26.733Z,58.22
2023-05-06T03:20:56.763Z,118.32
2023-05-06T03:23:26.232Z,80.82
2023-05-06T03:26:00.032Z,22.00
2023-05-06T03:28:31.168Z,57.17
2023-05-06T03:31:01.588Z,84.07
2023-05-06T03:33:32.193Z,24.35
2023-05-06T03:36:01.943Z,43.35
2023-05-06T03:38:31.455Z,49.83
2023-05-06T03:41:04.317Z,24.50
2023-05-06T03:43:36.187Z,44.78
2023-05-06T03:46:09.133Z,19.67
2023-05-06T03:48:39.185Z,61.70
2023-05-06T03:51:12.299Z,62.83
2023-05-06T03:53:44.146Z,44.80
2023-05-06T03:56:13.452Z,82.75
2023-05-06T03:58:44.044Z,78.75
2023-05-06T04:01:14.321Z,98.90
2023-05-06T04:03:43.483Z,49.67
2023-05-06T04:06:12.546Z,149.57
2023-05-06T04:08:44.980Z,113.78
2023-05-06T04:11:14.659Z,125.10
2023-05-06T04:13:45.430Z,26.95
2023-05-06T04:16:18.508Z,45.70
2023-05-06T04:18:48.007Z,74.80
2023-05-06T04:21:18.638Z,63.95
2023-05-06T04:23:57.029Z,46.83
2023-05-06T04:26:34.169Z,31.90
2023-05-06T04:29:05.713Z,31.65
2023-05-06T04:31:38.133Z,18.42
2023-05-06T04:34:10.922Z,15.10
2023-05-06T04:36:40.786Z,16.10
2023-05-06T04:39:27.646Z,17.98
2023-05-06T04:41:56.879Z,12.68
2023-05-06T04:44:36.618Z,12.77
2023-05-06T04:47:09.327Z,14.52
2023-05-06T04:49:45.167Z,14.98
2023-05-06T04:52:14.944Z,16.05
2023-05-06T04:54:46.583Z,17.40
2023-05-06T04:57:15.750Z,17.33
2023-05-06T04:59:48.636Z,19.55
2023-05-06T05:02:18.006Z,17.63
2023-05-06T05:04:47.180Z,18.50
2023-05-06T05:07:17.625Z,15.82
2023-05-06T05:09:46.977Z,23.73
2023-05-06T05:12:16.048Z,17.35
2023-05-06T05:14:50.333Z,21.20
2023-05-06T05:17:19.467Z,18.15
2023-05-06T05:19:53.027Z,17.77
2023-05-06T05:22:23.243Z,17.92
2023-05-06T05:24:52.431Z,16.15
2023-05-06T05:27:23.935Z,16.50
2023-05-06T05:29:55.379Z,23.80
2023-05-06T05:32:24.219Z,31.27
2023-05-06T05:34:56.492Z,19.58
2023-05-06T05:37:26.925Z,19.77
2023-05-06T05:39:58.175Z,16.63
2023-05-06T05:42:28.098Z,18.08
2023-05-06T05:45:00.035Z,20.08
2023-05-06T05:47:29.026Z,17.67
2023-05-06T05:49:58.122Z,19.67
2023-05-06T05:52:26.955Z,18.10
2023-05-06T05:54:56.058Z,19.83
2023-05-06T05:57:24.995Z,18.02
2023-05-06T05:59:54.336Z,18.00
2023-05-06T06:02:24.553Z,18.67
2023-05-06T06:04:53.660Z,16.65
2023-05-06T06:07:22.716Z,18.17
2023-05-06T06:09:51.821Z,18.67
2023-05-06T06:12:20.670Z,19.02
2023-05-06T06:14:49.555Z,19.58
2023-05-06T06:17:24.562Z,16.42
2023-05-06T06:19:57.269Z,19.67
2023-05-06T06:22:26.420Z,17.48
2023-05-06T06:24:57.346Z,19.30
2023-05-06T06:27:28.398Z,19.15
2023-05-06T06:29:57.608Z,18.95
2023-05-06T06:32:27.806Z,22.80
2023-05-06T06:34:57.044Z,20.83
2023-05-06T06:37:28.532Z,20.88
2023-05-06T06:39:59.738Z,23.55
2023-05-06T06:42:30.730Z,26.50
2023-05-06T06:45:10.507Z,21.25
2023-05-06T06:47:41.285Z,23.73
2023-05-06T06:50:11.364Z,22.30
2023-05-06T06:52:40.231Z,23.02
2023-05-06T06:55:10.477Z,22.00
2023-05-06T06:57:41.275Z,96.15
2023-05-06T07:00:11.184Z,41.20
2023-05-06T07:02:41.528Z,26.65
2023-05-06T07:05:11.061Z,32.55
2023-05-06T07:07:40.124Z,25.40
2023-05-06T07:10:10.165Z,27.92
2023-05-06T07:12:39.094Z,25.73
2023-05-06T07:15:09.176Z,25.92
2023-05-06T07:17:38.509Z,30.48
2023-05-06T07:20:10.331Z,30.98
2023-05-06T07:22:39.200Z,27.42
2023-05-06T07:25:09.104Z,26.63
2023-05-06T07:27:40.387Z,29.97
2023-05-06T07:30:10.114Z,28.98
2023-05-06T07:32:41.136Z,25.27
2023-05-06T07:35:11.728Z,25.15
2023-05-06T07:37:40.731Z,29.13
2023-05-06T07:40:10.400Z,26.70
2023-05-06T07:42:40.879Z,28.05
2023-05-06T07:45:12.286Z,33.25
2023-05-06T07:47:43.536Z,31.95
2023-05-06T07:50:13.733Z,31.15
2023-05-06T07:52:42.623Z,26.75
2023-05-06T07:55:11.777Z,31.73
2023-05-06T07:57:40.660Z,27.05
2023-05-06T08:00:10.553Z,34.40
2023-05-06T08:02:45.048Z,26.77
2023-05-06T08:05:15.884Z,23.13
2023-05-06T08:07:44.680Z,26.80
2023-05-06T08:10:13.430Z,23.13
2023-05-06T08:12:42.864Z,29.42
2023-05-06T08:15:12.555Z,23.70
2023-05-06T08:17:41.737Z,18.38
2023-05-06T08:20:11.588Z,24.90
2023-05-06T08:22:41.706Z,17.73
2023-05-06T08:25:11.610Z,17.83
2023-05-06T08:27:40.789Z,31.73
2023-05-06T08:30:12.992Z,19.75
2023-05-06T08:32:42.195Z,16.48
2023-05-06T08:35:11.464Z,19.13
2023-05-06T08:37:42.015Z,23.90
2023-05-06T08:40:18.800Z,22.77
2023-05-06T08:42:51.525Z,16.15
2023-05-06T08:45:20.843Z,18.83
2023-05-06T08:47:49.677Z,28.67
2023-05-06T08:50:18.582Z,21.05
2023-05-06T08:52:49.103Z,19.23
2023-05-06T08:56:43.183Z,17.65
2023-05-06T08:59:45.129Z,19.77
2023-05-06T09:02:16.843Z,17.03
2023-05-06T09:04:46.512Z,24.95
2023-05-06T09:07:15.479Z,23.52
2023-05-06T09:09:45.896Z,21.67
2023-05-06T09:12:15.615Z,18.58
2023-05-06T09:14:44.760Z,16.88
2023-05-06T09:17:24.267Z,17.42
2023-05-06T09:19:54.166Z,14.88
2023-05-06T09:22:23.384Z,15.75
2023-05-06T09:24:57.493Z,19.00
2023-05-06T09:27:28.421Z,20.27
2023-05-06T09:32:32.970Z,20.02
2023-05-06T09:35:04.039Z,16.10
2023-05-06T09:37:33.105Z,15.85
2023-05-06T09:40:03.206Z,22.05
2023-05-06T09:42:32.479Z,17.88
2023-05-06T09:45:02.857Z,20.65
2023-05-06T09:47:35.410Z,17.45
2023-05-06T09:50:05.435Z,13.93
2023-05-06T09:52:34.712Z,15.45
2023-05-06T09:55:06.410Z,19.05
2023-05-06T09:57:37.121Z,15.15
2023-05-06T10:00:09.244Z,24.08
2023-05-06T10:02:45.677Z,17.65
2023-05-06T10:05:15.281Z,24.67
2023-05-06T10:07:44.803Z,22.60
2023-05-06T10:10:15.156Z,24.90
2023-05-06T10:12:45.220Z,17.98
2023-05-06T10:15:14.034Z,17.00
2023-05-06T10:17:47.504Z,15.38
2023-05-06T10:20:18.002Z,13.45
2023-05-06T10:23:02.410Z,17.75
2023-05-06T10:25:36.926Z,13.30
2023-05-06T10:28:10.401Z,17.90
2023-05-06T10:30:51.924Z,13.93
2023-05-06T10:33:21.452Z,21.02
2023-05-06T10:35:56.525Z,31.02
2023-05-06T10:38:30.927Z,19.65
2023-05-06T10:41:02.260Z,20.77
2023-05-06T10:43:32.163Z,17.13
2023-05-06T10:46:02.988Z,22.60
2023-05-06T10:48:33.103Z,20.85
2023-05-06T10:51:24.168Z,23.40
2023-05-06T10:54:02.403Z,14.77
2023-05-06T10:56:34.386Z,18.63
2023-05-06T10:59:08.011Z,15.83
2023-05-06T11:01:40.805Z,17.55
2023-05-06T11:04:10.755Z,14.05
2023-05-06T11:06:42.417Z,14.48
2023-05-06T11:09:18.783Z,19.85
2023-05-06T11:12:01.038Z,24.67
2023-05-06T11:14:31.303Z,17.20
2023-05-06T11:17:01.618Z,17.65
2023-05-06T11:19:31.721Z,21.58
2023-05-06T11:22:01.961Z,20.17
2023-05-06T11:24:32.689Z,11.70
2023-05-06T11:27:02.742Z,15.77
2023-05-06T11:29:31.648Z,15.90
2023-05-06T11:32:00.638Z,19.65
2023-05-06T11:34:30.501Z,14.40
2023-05-06T11:37:03.282Z,12.98
2023-05-06T11:39:38.759Z,15.02
2023-05-06T11:42:09.880Z,19.15
2023-05-06T11:44:39.852Z,11.68
2023-05-06T11:47:09.943Z,16.17
2023-05-06T11:49:39.752Z,12.63
2023-05-06T11:52:09.779Z,14.30
2023-05-06T11:54:42.518Z,9.93
2023-05-06T11:57:15.195Z,15.82
2023-05-06T11:59:44.062Z,11.00
2023-05-06T12:02:14.830Z,11.13
2023-05-06T12:04:45.871Z,12.50
2023-05-06T12:07:15.988Z,11.38
2023-05-06T12:09:48.654Z,10.68
2023-05-06T12:12:22.295Z,14.38
2023-05-06T12:14:53.761Z,13.23
2023-05-06T12:17:22.718Z,10.57
2023-05-06T12:19:51.531Z,11.70
2023-05-06T12:22:25.697Z,11.75
2023-05-06T12:24:54.539Z,8.93
2023-05-06T12:27:35.935Z,9.13
2023-05-06T12:32:58.326Z,13.38
2023-05-06T12:35:27.895Z,14.20
2023-05-06T12:37:57.449Z,9.93
2023-05-06T12:40:26.398Z,8.05
2023-05-06T12:42:57.313Z,10.30
2023-05-06T12:45:26.690Z,9.20
2023-05-06T12:47:56.688Z,9.18
2023-05-06T12:50:33.045Z,8.63
2023-05-06T12:53:02.138Z,9.25
2023-05-06T12:55:33.503Z,6.78
2023-05-06T12:58:03.838Z,9.30
2023-05-06T13:03:03.840Z,6.97
2023-05-06T13:05:32.553Z,9.52
2023-05-06T13:08:01.475Z,9.75
2023-05-06T13:10:30.195Z,5.25
2023-05-06T13:12:58.987Z,9.90
2023-05-06T13:15:29.148Z,8.00
2023-05-06T13:17:57.945Z,9.27
2023-05-06T13:20:29.462Z,7.75
2023-05-06T13:22:58.362Z,7.32
2023-05-06T13:25:27.078Z,9.00
2023-05-06T13:27:55.791Z,12.35
2023-05-06T13:30:24.585Z,11.18
2023-05-06T13:32:54.836Z,8.07
2023-05-06T13:35:23.585Z,8.27
2023-05-06T13:37:54.816Z,6.75
2023-05-06T13:40:23.494Z,13.48
2023-05-06T13:42:52.199Z,12.07
2023-05-06T13:45:21.330Z,11.05
2023-05-06T13:47:50.591Z,9.93
2023-05-06T13:50:20.712Z,13.10
2023-05-06T13:52:49.475Z,12.23
2023-05-06T13:55:19.543Z,13.77
2023-05-06T13:57:48.358Z,16.55
2023-05-06T14:00:17.940Z,21.08
2023-05-06T14:02:47.002Z,9.68
2023-05-06T14:05:18.323Z,19.05
2023-05-06T14:07:48.636Z,14.48
2023-05-06T14:10:22.415Z,12.63
2023-05-06T14:12:51.327Z,11.07
2023-05-06T14:15:20.812Z,11.38
2023-05-06T14:17:49.768Z,12.55
2023-05-06T14:20:20.684Z,9.98
2023-05-06T14:22:53.830Z,15.48
2023-05-06T14:28:06.700Z,9.07
2023-05-06T14:30:35.864Z,18.48
2023-05-06T14:33:04.870Z,31.25
2023-05-06T14:35:33.893Z,34.22
2023-05-06T14:38:03.280Z,40.50
2023-05-06T14:40:32.058Z,35.58
2023-05-06T14:43:00.810Z,44.90
2023-05-06T14:45:31.163Z,41.85
2023-05-06T14:48:00.048Z,46.83
2023-05-06T14:50:28.836Z,42.33
2023-05-06T14:52:57.610Z,46.40
2023-05-06T14:55:27.518Z,55.63
2023-05-06T14:57:56.315Z,42.15
